Time;durP1;ratioP1;P1;durP2;ratioP2;P2;SDS_P1;SDS_P2;PMS_P1;PMS_P2;Temp;Humidity;BMP_temperature;BMP_pressure;BME280_temperature;BME280_humidity;BME280_pressure;Samples;Min_cycle;Max_cycle;Signal;HPM_P1;HPM_P2
2021/07/07 00:00:20;;;;;;;6.60;3.85;;;;;;;22.19;67.73;100077.77;1762190;80;20971;-57
2021/07/07 00:02:48;;;;;;;6.08;4.12;;;;;;;22.20;67.82;100088.13;1762760;80;20923;-55
2021/07/07 00:05:16;;;;;;;5.67;3.95;;;;;;;22.18;67.93;100088.99;1762800;80;20975;-55
2021/07/07 00:07:44;;;;;;;4.53;3.77;;;;;;;22.17;68.10;100090.92;1762658;80;21148;-56
2021/07/07 00:10:19;;;;;;;7.33;4.25;;;;;;;22.17;68.22;100091.46;1760478;80;21437;-55
2021/07/07 00:12:47;;;;;;;6.78;4.25;;;;;;;22.19;68.48;100091.98;1764475;80;20959;-55
2021/07/07 00:15:19;;;;;;;5.55;4.65;;;;;;;22.20;68.88;100093.58;1765102;80;20891;-56
2021/07/07 00:17:47;;;;;;;11.28;4.70;;;;;;;22.15;69.07;100096.42;1763980;80;20943;-55
2021/07/07 00:20:16;;;;;;;9.53;5.27;;;;;;;22.14;69.30;100097.53;1763519;80;23314;-54
2021/07/07 00:22:43;;;;;;;5.28;4.47;;;;;;;22.14;69.50;100096.16;1762705;80;21022;-55
2021/07/07 00:25:10;;;;;;;5.45;4.42;;;;;;;22.08;69.71;100102.27;1762529;80;20997;-56
2021/07/07 00:27:37;;;;;;;8.63;4.50;;;;;;;22.04;69.79;100103.44;1763813;80;21029;-57
2021/07/07 00:30:06;;;;;;;10.70;5.28;;;;;;;22.05;69.86;100106.44;1762422;80;20951;-55
2021/07/07 00:32:32;;;;;;;7.10;4.67;;;;;;;22.02;69.87;100108.94;1763566;80;21801;-56
2021/07/07 00:34:59;;;;;;;5.08;4.40;;;;;;;21.97;69.94;100108.48;1763447;80;20950;-56
2021/07/07 00:37:26;;;;;;;7.35;4.35;;;;;;;21.99;69.86;100104.88;1762623;80;21022;-55
2021/07/07 00:39:53;;;;;;;6.05;4.25;;;;;;;22.00;69.53;100108.44;1761303;80;21112;-56
2021/07/07 00:42:19;;;;;;;7.12;4.53;;;;;;;22.01;69.34;100111.41;1762501;80;20985;-56
2021/07/07 00:44:46;;;;;;;8.70;4.60;;;;;;;21.99;69.08;100113.64;1766265;80;22913;-56
2021/07/07 00:47:12;;;;;;;5.83;4.55;;;;;;;21.97;68.85;100116.67;1763294;80;20939;-56
2021/07/07 00:49:41;;;;;;;5.87;4.03;;;;;;;21.95;68.49;100111.25;1761563;80;20970;-56
2021/07/07 00:52:08;;;;;;;5.22;3.72;;;;;;;21.92;68.23;100115.37;1761673;80;20943;-56
2021/07/07 00:54:34;;;;;;;4.28;3.62;;;;;;;21.88;67.95;100119.28;1700376;80;21066;-55
2021/07/07 00:57:02;;;;;;;3.87;3.30;;;;;;;21.84;67.93;100112.00;1762898;80;21147;-56
2021/07/07 00:59:29;;;;;;;6.17;3.20;;;;;;;21.80;67.51;100116.42;1763577;79;21473;-56
2021/07/07 01:01:56;;;;;;;5.22;3.37;;;;;;;21.77;66.95;100120.55;1760134;80;21523;-56
2021/07/07 01:04:23;;;;;;;3.80;3.17;;;;;;;21.72;66.84;100130.77;1764635;80;20959;-56
2021/07/07 01:06:50;;;;;;;3.77;3.20;;;;;;;21.65;66.54;100125.12;1766112;80;20939;-56
2021/07/07 01:09:17;;;;;;;4.05;3.10;;;;;;;21.62;66.31;100125.72;1759132;80;21861;-56
2021/07/07 01:11:43;;;;;;;4.42;3.00;;;;;;;21.60;66.40;100128.48;1766390;80;21005;-57
2021/07/07 01:14:10;;;;;;;6.60;3.33;;;;;;;21.62;66.20;100127.64;1767067;80;20943;-56
2021/07/07 01:16:43;;;;;;;3.72;3.20;;;;;;;21.61;65.86;100128.21;1763918;80;21445;-57
2021/07/07 01:19:13;;;;;;;3.95;3.02;;;;;;;21.57;65.72;100131.80;1735311;80;20986;-56
2021/07/07 01:21:47;;;;;;;3.17;2.87;;;;;;;21.48;65.93;100128.37;1761351;80;21002;-57
2021/07/07 01:24:15;;;;;;;3.37;3.02;;;;;;;21.48;66.00;100128.91;1759531;80;20896;-56
2021/07/07 01:26:43;;;;;;;7.83;3.27;;;;;;;21.47;66.09;100135.49;1763930;80;20995;-57
2021/07/07 01:29:10;;;;;;;3.25;2.90;;;;;;;21.48;66.00;100131.64;1761376;80;20927;-56
2021/07/07 01:31:38;;;;;;;5.70;2.85;;;;;;;21.46;65.92;100133.30;1763401;80;20936;-57
2021/07/07 01:34:06;;;;;;;6.33;3.45;;;;;;;21.44;66.00;100135.52;1761788;80;21741;-57
2021/07/07 01:36:36;;;;;;;;;;;;;;;21.44;65.80;100133.36;1763785;80;20911;-56
2021/07/07 01:39:05;;;;;;;4.67;2.80;;;;;;;21.44;65.66;100136.09;1761571;80;20103;-58
2021/07/07 01:41:32;;;;;;;4.55;2.65;;;;;;;21.42;65.75;100141.01;1765414;80;20931;-56
2021/07/07 01:43:58;;;;;;;3.70;3.10;;;;;;;21.44;65.54;100132.00;1765796;80;20982;-55
2021/07/07 01:46:25;;;;;;;5.10;3.17;;;;;;;21.46;65.18;100138.75;1762199;80;21936;-56
2021/07/07 01:48:53;;;;;;;3.67;2.90;;;;;;;21.47;64.98;100136.29;1762553;80;21248;-57
2021/07/07 01:51:20;;;;;;;3.30;3.00;;;;;;;21.46;64.74;100145.56;1765132;80;21554;-57
2021/07/07 01:53:47;;;;;;;4.00;3.05;;;;;;;21.42;64.77;100141.01;1763461;80;21548;-57
2021/07/07 01:56:13;;;;;;;4.50;3.27;;;;;;;21.43;64.90;100138.55;1760379;80;20976;-57
2021/07/07 01:58:40;;;;;;;6.42;3.10;;;;;;;21.42;65.10;100137.75;1766632;80;21063;-57
2021/07/07 02:01:07;;;;;;;4.17;3.52;;;;;;;21.43;65.29;100144.80;1762838;80;21646;-57
2021/07/07 02:03:35;;;;;;;;;;;;;;;21.44;65.41;100145.06;1763124;80;20953;-57
2021/07/07 02:06:01;;;;;;;5.42;3.12;;;;;;;21.43;65.60;100150.25;1762192;80;20102;-56
2021/07/07 02:08:28;;;;;;;7.92;3.60;;;;;;;21.43;65.87;100154.91;1765598;80;21033;-56
2021/07/07 02:10:57;;;;;;;6.35;3.47;;;;;;;21.45;66.14;100160.33;1760733;80;20978;-56
2021/07/07 02:13:24;;;;;;;4.45;3.47;;;;;;;21.48;66.37;100156.17;1762253;80;21465;-56
2021/07/07 02:15:51;;;;;;;7.58;4.45;;;;;;;21.46;66.55;100159.20;1768529;80;21006;-56
2021/07/07 02:18:19;;;;;;;;;;;;;;;21.43;66.75;100169.91;1765944;80;21532;-56
2021/07/07 02:20:47;;;;;;;8.25;4.00;;;;;;;21.41;66.81;100169.40;1760013;80;20157;-56
2021/07/07 02:23:14;;;;;;;9.08;4.58;;;;;;;21.36;66.82;100168.89;1762492;80;21161;-55
2021/07/07 02:25:44;;;;;;;5.85;3.90;;;;;;;21.33;66.84;100176.30;1763571;80;20927;-56
2021/07/07 02:28:14;;;;;;;8.18;3.92;;;;;;;21.32;66.85;100179.59;1763175;80;21537;-56
2021/07/07 02:30:41;;;;;;;5.92;3.90;;;;;;;21.33;66.66;100170.32;1761724;80;20939;-54
2021/07/07 02:33:09;;;;;;;6.30;3.77;;;;;;;21.33;66.63;100175.77;1761334;80;20976;-55
2021/07/07 02:35:37;;;;;;;7.95;4.08;;;;;;;21.31;66.42;100171.15;1763103;80;22039;-55
2021/07/07 02:38:05;;;;;;;9.55;6.25;;;;;;;21.27;66.53;100174.77;1757731;80;21509;-55
2021/07/07 02:40:33;;;;;;;5.50;3.47;;;;;;;21.26;66.58;100175.33;1761939;80;20991;-56
2021/07/07 02:43:01;;;;;;;7.40;3.40;;;;;;;21.31;66.30;100182.62;1764639;80;20995;-56
2021/07/07 02:45:29;;;;;;;5.83;4.05;;;;;;;21.31;66.01;100180.69;1762391;80;20990;-56
2021/07/07 02:47:55;;;;;;;5.03;3.60;;;;;;;21.33;65.76;100181.22;1763577;80;21167;-55
2021/07/07 02:50:22;;;;;;;4.83;3.30;;;;;;;21.34;65.29;100185.55;1762349;80;20992;-55
2021/07/07 02:52:50;;;;;;;4.20;3.45;;;;;;;21.28;64.99;100185.38;1761801;80;21010;-56
2021/07/07 02:55:18;;;;;;;3.25;2.98;;;;;;;21.17;65.21;100187.44;1760493;80;21038;-56
2021/07/07 02:58:01;;;;;;;5.17;3.40;;;;;;;21.10;64.95;100196.52;1764011;80;20975;-55
2021/07/07 03:00:39;;;;;;;3.77;3.08;;;;;;;21.02;65.21;100196.36;1767441;80;21598;-55
2021/07/07 03:03:08;;;;;;;5.58;3.25;;;;;;;20.97;65.00;100189.87;1765549;80;20970;-56
2021/07/07 03:05:39;;;;;;;4.08;3.40;;;;;;;20.90;64.97;100198.14;1761335;80;20927;-56
2021/07/07 03:08:06;;;;;;;4.00;3.40;;;;;;;20.83;65.02;100205.30;1762357;80;20962;-55
2021/07/07 03:10:33;;;;;;;7.42;3.22;;;;;;;20.81;65.22;100204.78;1764182;80;20919;-56
2021/07/07 03:13:00;;;;;;;4.83;3.02;;;;;;;20.85;65.26;100205.83;1763045;80;21558;-57
2021/07/07 03:15:26;;;;;;;4.78;3.67;;;;;;;20.90;65.24;100204.39;1761649;80;20970;-55
2021/07/07 03:17:55;;;;;;;3.90;3.00;;;;;;;20.94;65.02;100207.36;1761618;80;20836;-55
2021/07/07 03:20:22;;;;;;;4.87;3.77;;;;;;;20.96;65.14;100203.22;1762341;80;21472;-56
2021/07/07 03:22:49;;;;;;;4.28;3.22;;;;;;;;;;1763883;80;20986;-58
2021/07/07 03:25:15;;;;;;;6.33;3.40;;;;;;;21.08;64.67;100212.36;1766261;80;21136;-55
2021/07/07 03:27:42;;;;;;;4.50;2.92;;;;;;;21.14;64.51;100210.36;1762789;80;20962;-55
2021/07/07 03:30:11;;;;;;;6.05;3.20;;;;;;;21.18;64.32;100218.22;1760339;80;21438;-56
2021/07/07 03:32:37;;;;;;;6.20;3.58;;;;;;;21.22;63.88;100223.91;1765386;80;21406;-57
2021/07/07 03:35:05;;;;;;;5.12;2.80;;;;;;;21.22;63.91;100223.91;1763930;80;20909;-56
2021/07/07 03:37:32;;;;;;;4.05;3.50;;;;;;;21.27;63.53;100231.44;1763610;80;21902;-56
2021/07/07 03:39:58;;;;;;;5.47;3.12;;;;;;;21.35;63.39;100228.07;1760325;80;20911;-56
2021/07/07 03:42:25;;;;;;;5.97;3.50;;;;;;;21.58;62.84;100235.70;1762264;80;20987;-57
2021/07/07 03:44:51;;;;;;;4.55;3.60;;;;;;;22.10;61.11;100237.06;1765298;80;21477;-56
2021/07/07 03:47:18;;;;;;;5.45;3.15;;;;;;;22.74;59.04;100231.29;1767787;80;20916;-57
2021/07/07 03:49:45;;;;;;;4.15;3.37;;;;;;;23.31;57.49;100232.11;1763252;80;21106;-59
2021/07/07 03:52:11;;;;;;;5.83;2.90;;;;;;;23.94;56.04;100227.10;1760902;80;21053;-58
2021/07/07 03:54:38;;;;;;;3.42;2.85;;;;;;;24.63;53.31;100229.19;1762027;80;20983;-58
2021/07/07 03:57:05;;;;;;;4.92;2.90;;;;;;;25.09;52.33;100230.64;1762122;80;20911;-60
2021/07/07 03:59:31;;;;;;;3.85;3.40;;;;;;;25.39;51.47;100239.09;1765394;80;20954;-58
2021/07/07 04:01:58;;;;;;;5.95;3.15;;;;;;;25.84;50.40;100232.50;1761630;80;21067;-58
2021/07/07 04:04:24;;;;;;;3.65;2.58;;;;;;;26.52;48.34;100234.63;1761876;80;21228;-58
2021/07/07 04:06:57;;;;;;;3.35;2.80;;;;;;;26.84;47.46;100238.73;1762266;80;21027;-60
2021/07/07 04:09:20;;;;;;;3.90;3.02;;;;;;;27.13;46.87;100243.17;1761409;80;21476;-59
2021/07/07 04:11:47;;;;;;;3.52;2.35;;;;;;;27.57;46.14;100239.58;1763191;80;20971;-59
2021/07/07 04:14:13;;;;;;;4.72;2.85;;;;;;;28.12;44.55;100243.14;1767763;80;22147;-58
2021/07/07 04:16:40;;;;;;;3.60;3.30;;;;;;;28.48;43.75;100245.17;1767696;80;20997;-57
2021/07/07 04:19:07;;;;;;;2.60;2.40;;;;;;;28.82;43.07;100245.13;1767956;80;21406;-57
2021/07/07 04:21:34;;;;;;;2.92;2.33;;;;;;;29.07;42.25;100245.91;1768208;80;20994;-55
2021/07/07 04:24:00;;;;;;;5.35;2.50;;;;;;;29.26;41.85;100253.63;1769021;80;20998;-57
2021/07/07 04:26:27;;;;;;;3.83;2.70;;;;;;;29.66;41.51;100247.88;1768762;80;21042;-56
2021/07/07 04:28:53;;;;;;;3.05;2.17;;;;;;;30.36;40.34;100249.39;1768617;80;20942;-55
2021/07/07 04:31:21;;;;;;;4.62;2.75;;;;;;;30.95;38.35;100249.67;1765750;80;20931;-60
2021/07/07 04:33:48;;;;;;;3.02;1.95;;;;;;;31.10;37.87;100249.68;1767071;80;20989;-58
2021/07/07 04:36:14;;;;;;;2.70;2.10;;;;;;;31.14;37.25;100257.27;1767385;80;21018;-61
2021/07/07 04:38:41;;;;;;;2.08;1.87;;;;;;;31.18;37.39;100255.38;1768415;80;21054;-59
2021/07/07 04:41:09;;;;;;;2.95;2.30;;;;;;;31.20;37.20;100257.20;1765603;80;20918;-58
2021/07/07 04:43:36;;;;;;;3.75;2.52;;;;;;;31.26;36.50;100255.77;1768643;80;21621;-58
2021/07/07 04:46:03;;;;;;;6.47;2.47;;;;;;;30.69;37.82;100262.91;1743070;80;21553;-55
2021/07/07 04:48:30;;;;;;;2.40;2.05;;;;;;;29.58;39.47;100259.31;1771399;80;21042;-53
2021/07/07 04:50:57;;;;;;;2.30;2.15;;;;;;;28.38;41.98;100269.62;1771736;80;21118;-55
2021/07/07 04:53:23;;;;;;;2.77;2.17;;;;;;;27.70;43.49;100270.73;1771436;80;20954;-54
2021/07/07 04:55:52;;;;;;;3.12;2.10;;;;;;;27.17;44.65;100279.89;1768834;80;20966;-52
2021/07/07 04:58:18;;;;;;;5.80;3.42;;;;;;;26.66;46.79;100272.30;1767151;80;21283;-57
2021/07/07 05:00:45;;;;;;;3.25;2.80;;;;;;;26.35;47.56;100273.40;1766809;80;21540;-56
2021/07/07 05:03:12;;;;;;;2.98;2.60;;;;;;;25.79;48.73;100280.11;1768904;80;21134;-56
2021/07/07 05:05:40;;;;;;;3.87;2.37;;;;;;;25.21;50.22;100275.27;1769341;79;20970;-52
2021/07/07 05:08:07;;;;;;;4.25;2.60;;;;;;;24.78;51.41;100283.59;1768666;80;21535;-53
2021/07/07 05:10:33;;;;;;;4.58;3.08;;;;;;;24.40;52.26;100285.95;1766710;80;20959;-52
2021/07/07 05:13:01;;;;;;;3.62;2.95;;;;;;;24.03;53.56;100290.12;1768723;80;20883;-52
2021/07/07 05:15:30;;;;;;;4.15;3.10;;;;;;;23.73;54.47;100298.45;1733997;80;20851;-51
2021/07/07 05:17:56;;;;;;;4.75;3.12;;;;;;;23.42;55.62;100301.31;1763247;80;20931;-55
2021/07/07 05:20:23;;;;;;;3.10;2.70;;;;;;;23.19;56.40;100304.52;1760073;80;20995;-52
2021/07/07 05:22:51;;;;;;;;;;;;;;;23.03;57.39;100311.37;1763107;80;20932;-54
2021/07/07 05:25:18;;;;;;;3.55;3.05;;;;;;;22.92;57.63;100317.58;1763640;80;20140;-52
2021/07/07 05:27:45;;;;;;;4.35;2.92;;;;;;;22.78;57.82;100314.05;1763349;80;21714;-53
2021/07/07 05:30:14;;;;;;;3.47;2.85;;;;;;;22.65;58.78;100319.16;1763467;80;20928;-52
2021/07/07 05:32:40;;;;;;;3.47;2.52;;;;;;;22.60;59.02;100315.70;1763226;80;21528;-52
2021/07/07 05:35:09;;;;;;;5.08;2.95;;;;;;;22.52;59.23;100315.28;1762893;80;20951;-53
2021/07/07 05:37:35;;;;;;;4.15;3.05;;;;;;;22.46;59.20;100321.15;1762995;80;21492;-54
2021/07/07 05:40:03;;;;;;;4.55;3.12;;;;;;;22.37;59.72;100323.19;1762177;80;21154;-53
2021/07/07 05:42:30;;;;;;;7.17;2.90;;;;;;;22.38;60.29;100322.08;1760693;80;21516;-54
2021/07/07 05:44:56;;;;;;;3.83;3.02;;;;;;;22.38;60.12;100327.55;1767934;80;20824;-54
2021/07/07 05:47:24;;;;;;;3.37;3.08;;;;;;;22.38;60.73;100333.00;1766474;80;20872;-53
2021/07/07 05:49:55;;;;;;;4.25;2.62;;;;;;;22.44;60.75;100329.64;1763121;80;21013;-53
2021/07/07 05:52:19;;;;;;;4.62;2.80;;;;;;;22.52;60.24;100326.77;1763389;80;21809;-55
2021/07/07 05:54:46;;;;;;;6.55;3.00;;;;;;;22.54;59.49;100328.10;1762130;80;20918;-54
2021/07/07 05:57:12;;;;;;;5.17;2.67;;;;;;;22.50;59.21;100329.80;1763444;80;20922;-52
2021/07/07 05:59:39;;;;;;;4.62;2.58;;;;;;;22.43;59.80;100329.94;1762542;80;20987;-51
2021/07/07 06:02:05;;;;;;;10.53;3.10;;;;;;;22.45;59.72;100331.23;1764827;80;20989;-52
2021/07/07 06:04:32;;;;;;;4.58;3.15;;;;;;;22.48;60.23;100335.30;1768021;80;21120;-52
2021/07/07 06:06:58;;;;;;;3.37;2.72;;;;;;;22.54;59.90;100334.09;1762293;80;21034;-51
2021/07/07 06:09:25;;;;;;;4.67;2.67;;;;;;;22.55;59.30;100337.89;1760017;80;20963;-51
2021/07/07 06:11:52;;;;;;;5.70;2.77;;;;;;;22.55;59.56;100335.73;1764273;80;21555;-53
2021/07/07 06:14:18;;;;;;;3.40;2.87;;;;;;;22.54;59.85;100332.20;1770042;80;20895;-53
2021/07/07 06:16:45;;;;;;;4.90;3.15;;;;;;;22.56;59.82;100337.36;1771984;80;21250;-54
2021/07/07 06:19:12;;;;;;;6.30;2.83;;;;;;;22.56;59.79;100337.36;1768877;80;20986;-56
2021/07/07 06:21:38;;;;;;;6.15;3.72;;;;;;;22.59;60.47;100344.16;1769881;80;21131;-53
2021/07/07 06:24:05;;;;;;;5.72;2.65;;;;;;;22.67;60.29;100347.02;1766956;80;21394;-55
2021/07/07 06:26:33;;;;;;;9.18;3.52;;;;;;;22.79;60.06;100350.62;1765334;80;21085;-57
2021/07/07 06:29:04;;;;;;;6.20;3.22;;;;;;;22.88;59.77;100346.08;1768687;80;21153;-54
2021/07/07 06:31:35;;;;;;;4.08;2.90;;;;;;;22.95;59.17;100349.77;1768215;80;20919;-52
2021/07/07 06:34:02;;;;;;;3.80;2.80;;;;;;;23.01;58.21;100349.13;1768746;79;20942;-54
2021/07/07 06:36:29;;;;;;;4.20;3.60;;;;;;;23.05;58.46;100355.05;1767660;80;20998;-56
2021/07/07 06:38:55;;;;;;;4.22;3.10;;;;;;;23.21;58.69;100347.96;1774536;80;20954;-54
2021/07/07 06:41:22;;;;;;;3.30;2.42;;;;;;;23.46;58.24;100358.94;1770111;80;21146;-54
2021/07/07 06:43:49;;;;;;;5.33;2.70;;;;;;;23.71;56.69;100360.33;1765084;80;21524;-57
2021/07/07 06:46:15;;;;;;;5.65;2.30;;;;;;;23.91;56.46;100363.75;1766924;80;20958;-55
2021/07/07 06:48:42;;;;;;;2.62;2.35;;;;;;;24.10;55.70;100370.45;1770468;80;21551;-54
2021/07/07 06:51:09;;;;;;;3.42;2.45;;;;;;;24.20;54.30;100361.20;1768635;80;21066;-53
2021/07/07 06:53:36;;;;;;;5.70;2.42;;;;;;;24.17;54.08;100367.30;1768782;80;21193;-52
2021/07/07 06:56:04;;;;;;;5.42;3.35;;;;;;;24.06;53.70;100377.69;1766305;80;21521;-52
2021/07/07 06:58:30;;;;;;;4.40;2.30;;;;;;;23.83;54.45;100378.95;1767035;80;21018;-54
2021/07/07 07:00:57;;;;;;;3.00;2.45;;;;;;;23.62;54.90;100377.22;1766945;80;21585;-55
2021/07/07 07:03:23;;;;;;;7.58;2.70;;;;;;;23.47;55.38;100381.62;1768562;80;20989;-53
2021/07/07 07:05:50;;;;;;;5.47;2.70;;;;;;;23.37;55.69;100392.23;1768728;80;21151;-57
2021/07/07 07:08:18;;;;;;;3.77;2.60;;;;;;;23.27;55.61;100383.66;1769037;80;20927;-53
2021/07/07 07:10:45;;;;;;;4.67;2.50;;;;;;;23.19;56.33;100388.45;1768978;80;21500;-53
2021/07/07 07:13:12;;;;;;;4.00;2.52;;;;;;;23.18;56.70;100387.65;1768810;80;20990;-53
2021/07/07 07:15:39;;;;;;;5.22;2.95;;;;;;;23.25;56.84;100385.89;1735784;82;20903;-53
2021/07/07 07:18:07;;;;;;;6.92;3.25;;;;;;;23.26;56.79;100382.02;1736465;82;21112;-53
2021/07/07 07:20:35;;;;;;;4.67;2.95;;;;;;;23.18;57.12;100384.91;1736647;82;20986;-53
2021/07/07 07:23:01;;;;;;;3.22;2.67;;;;;;;23.13;57.47;100378.73;1737572;82;20946;-53
2021/07/07 07:25:28;;;;;;;4.80;2.60;;;;;;;23.12;57.34;100391.59;1736155;82;21021;-53
2021/07/07 07:27:55;;;;;;;3.58;2.75;;;;;;;23.06;57.67;100383.21;1734018;81;20963;-52
2021/07/07 07:30:22;;;;;;;4.55;2.60;;;;;;;23.05;58.05;100386.48;1734820;82;21199;-56
2021/07/07 07:32:49;;;;;;;3.92;2.55;;;;;;;23.10;57.95;100384.27;1738642;82;20935;-55
2021/07/07 07:35:17;;;;;;;3.30;2.10;;;;;;;23.16;57.35;100386.32;1736327;82;21548;-56
2021/07/07 07:37:53;;;;;;;5.12;2.45;;;;;;;23.20;56.65;100396.37;1733833;82;21072;-56
2021/07/07 07:40:24;;;;;;;3.35;2.52;;;;;;;23.23;56.41;100392.20;1735640;82;21010;-54
2021/07/07 07:42:51;;;;;;;4.65;3.00;;;;;;;23.29;56.27;100389.63;1738425;80;21489;-54
2021/07/07 07:45:18;;;;;;;4.90;2.85;;;;;;;23.34;55.84;100390.91;1736895;80;21109;-54
2021/07/07 07:47:46;;;;;;;3.58;2.08;;;;;;;23.37;54.66;100399.06;1736130;82;20950;-56
2021/07/07 07:50:14;;;;;;;3.47;2.33;;;;;;;23.34;54.48;100386.00;1738083;82;21072;-55
2021/07/07 07:52:41;;;;;;;3.27;2.33;;;;;;;23.33;54.97;100392.58;1736302;82;21520;-55
2021/07/07 07:55:09;;;;;;;7.70;2.62;;;;;;;23.36;54.81;100393.33;1739989;82;21147;-55
2021/07/07 07:57:37;;;;;;;7.53;2.30;;;;;;;23.36;54.78;100396.87;1735802;82;20951;-56
2021/07/07 08:00:18;;;;;;;6.78;2.60;;;;;;;23.38;55.23;100397.39;1708053;82;21014;-56
2021/07/07 08:02:46;;;;;;;2.60;2.22;;;;;;;23.43;55.13;100397.28;1732936;82;21002;-56
2021/07/07 08:05:13;;;;;;;4.30;2.10;;;;;;;23.56;55.39;100401.13;1736234;82;21051;-58
2021/07/07 08:07:41;;;;;;;5.47;2.07;;;;;;;23.71;54.71;100401.94;1739142;82;21609;-55
2021/07/07 08:10:10;;;;;;;2.65;2.20;;;;;;;23.84;54.29;100399.73;1736189;82;21023;-56
2021/07/07 08:12:37;;;;;;;4.30;1.90;;;;;;;23.94;53.35;100396.81;1739363;82;21576;-56
2021/07/07 08:15:07;;;;;;;4.58;2.27;;;;;;;24.01;52.53;100395.01;1751751;80;20911;-57
2021/07/07 08:17:34;;;;;;;4.58;2.75;;;;;;;24.04;52.77;100402.63;1762724;80;20970;-55
2021/07/07 08:20:04;;;;;;;6.80;2.70;;;;;;;24.08;51.81;100406.92;1767264;80;21146;-52
2021/07/07 08:22:31;;;;;;;5.72;2.25;;;;;;;24.06;50.78;100403.13;1763449;80;21977;-53
2021/07/07 08:24:58;;;;;;;10.28;2.70;;;;;;;24.04;51.71;100406.73;1759126;80;21523;-58
2021/07/07 08:27:25;;;;;;;7.33;2.62;;;;;;;24.10;51.41;100414.25;1764460;79;20959;-57
2021/07/07 08:29:51;;;;;;;7.33;2.27;;;;;;;24.14;51.99;100405.67;1761992;80;22038;-58
2021/07/07 08:32:18;;;;;;;7.75;2.52;;;;;;;24.24;51.57;100408.19;1762709;80;21120;-57
2021/07/07 08:34:45;;;;;;;3.98;2.33;;;;;;;24.34;51.48;100412.63;1760501;80;20982;-58
2021/07/07 08:37:13;;;;;;;2.95;2.50;;;;;;;24.39;51.60;100404.84;1761992;80;20994;-58
2021/07/07 08:39:39;;;;;;;;;;;;;;;24.49;51.27;100416.36;1769323;80;21082;-57
2021/07/07 08:42:06;;;;;;;4.62;2.90;;;;;;;24.61;51.08;100405.44;1760181;80;20438;-57
2021/07/07 08:44:34;;;;;;;4.30;3.37;;;;;;;24.73;50.83;100411.72;1766568;80;21216;-59
2021/07/07 08:47:00;;;;;;;3.30;2.65;;;;;;;24.82;50.25;100413.41;1764581;80;21049;-58
2021/07/07 08:49:27;;;;;;;5.40;2.95;;;;;;;24.90;50.88;100411.03;1764757;80;21453;-58
2021/07/07 08:51:54;;;;;;;8.70;2.75;;;;;;;24.98;49.51;100406.97;1764165;80;20997;-58
2021/07/07 08:54:20;;;;;;;6.55;2.80;;;;;;;24.99;48.78;100410.52;1761741;80;20950;-57
2021/07/07 08:56:48;;;;;;;6.80;2.83;;;;;;;24.99;49.07;100413.26;1765127;80;21120;-57
2021/07/07 08:59:16;;;;;;;6.03;3.17;;;;;;;24.99;48.87;100405.83;1763373;80;21532;-58
2021/07/07 09:02:07;;;;;;;6.05;2.75;;;;;;;25.01;48.71;100408.25;1765576;80;20967;-57
2021/07/07 09:04:37;;;;;;;4.22;2.60;;;;;;;25.00;49.28;100417.05;1765387;80;20926;-58
2021/07/07 09:07:10;;;;;;;5.47;2.60;;;;;;;25.05;49.39;100423.53;1763453;79;21032;-58
2021/07/07 09:09:40;;;;;;;3.80;2.65;;;;;;;25.09;49.32;100418.47;1761673;79;21378;-58
2021/07/07 09:12:20;;;;;;;6.37;3.00;;;;;;;25.13;47.97;100422.75;1764212;80;21564;-57
2021/07/07 09:14:50;;;;;;;4.78;2.85;;;;;;;25.09;47.78;100429.98;1762927;80;21573;-57
2021/07/07 09:17:19;;;;;;;8.28;3.55;;;;;;;24.99;48.09;100435.19;1756867;80;20950;-57
2021/07/07 09:19:47;;;;;;;6.72;2.87;;;;;;;24.88;48.09;100437.39;1761909;80;21453;-59
2021/07/07 09:22:15;;;;;;;4.30;3.05;;;;;;;24.81;48.96;100438.39;1762276;80;21941;-57
2021/07/07 09:24:46;;;;;;;6.53;3.05;;;;;;;24.83;48.82;100434.77;1763424;80;21512;-57
2021/07/07 09:27:15;;;;;;;3.37;2.55;;;;;;;24.87;49.45;100445.90;1759969;80;21560;-57
2021/07/07 09:29:52;;;;;;;4.30;3.20;;;;;;;24.94;49.11;100440.79;1766948;80;20899;-57
2021/07/07 09:32:28;;;;;;;4.42;2.80;;;;;;;25.00;49.39;100432.13;1761974;80;21503;-58
2021/07/07 09:35:00;;;;;;;4.83;2.80;;;;;;;25.07;48.75;100441.27;1763454;80;21135;-57
2021/07/07 09:37:34;;;;;;;4.30;2.60;;;;;;;25.07;48.94;100446.75;1764778;80;20998;-57
2021/07/07 09:39:59;;;;;;;3.83;2.77;;;;;;;25.06;49.04;100441.58;1760065;80;20974;-56
2021/07/07 09:42:29;;;;;;;6.60;2.80;;;;;;;25.07;49.52;100445.38;1765711;80;21571;-56
2021/07/07 09:44:59;;;;;;;16.40;3.00;;;;;;;25.13;50.00;100451.55;1760346;80;20906;-53
2021/07/07 10:38:35;;;;;;;6.10;2.15;;;;;;;26.20;48.71;100451.88;1808703;78;23299;-53
2021/07/07 10:41:02;;;;;;;2.42;2.05;;;;;;;26.19;47.51;100454.94;1766280;80;21019;-53
2021/07/07 10:43:46;;;;;;;2.70;1.92;;;;;;;26.21;47.56;100452.12;1766785;79;21481;-53
2021/07/07 10:46:14;;;;;;;2.92;2.42;;;;;;;26.27;46.10;100460.22;1769866;80;21049;-53
2021/07/07 10:48:41;;;;;;;6.15;2.05;;;;;;;26.25;46.00;100448.73;1744552;80;20853;-52
2021/07/07 10:51:24;;;;;;;5.08;1.90;;;;;;;26.19;46.37;100454.39;1768593;80;21556;-54
2021/07/07 10:53:50;;;;;;;5.78;2.45;;;;;;;26.19;45.86;100447.53;1766848;80;20928;-52
2021/07/07 10:56:17;;;;;;;6.22;1.95;;;;;;;26.22;45.84;100458.41;1744043;80;21238;-52
2021/07/07 10:58:44;;;;;;;3.62;2.20;;;;;;;26.20;46.00;100448.33;1750667;80;20876;-53
2021/07/07 11:01:33;;;;;;;3.30;1.92;;;;;;;26.20;46.43;100446.95;1768525;80;20951;-59
2021/07/07 11:04:03;;;;;;;9.90;2.47;;;;;;;26.22;46.95;100447.43;1745236;78;20987;-53
2021/07/07 11:06:38;;;;;;;2.85;2.08;;;;;;;26.27;46.72;100446.48;1771998;78;21042;-53
2021/07/07 11:09:15;;;;;;;2.62;1.80;;;;;;;26.31;45.70;100442.77;1770271;78;21889;-53
2021/07/07 11:11:47;;;;;;;3.12;1.90;;;;;;;26.35;45.60;100440.17;1764691;80;20924;-54
2021/07/07 11:14:25;;;;;;;2.58;1.95;;;;;;;26.39;45.78;100445.27;1767760;80;21034;-53
2021/07/07 11:17:03;;;;;;;4.92;2.25;;;;;;;26.43;45.55;100442.12;1765334;80;20927;-54
2021/07/07 11:19:49;;;;;;;5.87;2.00;;;;;;;26.46;45.25;100435.97;1768349;80;21042;-57
2021/07/07 11:22:17;;;;;;;6.30;2.10;;;;;;;26.49;45.51;100446.89;1768179;80;21131;-53
2021/07/07 11:24:49;;;;;;;4.55;2.22;;;;;;;26.51;45.19;100444.62;1733983;82;21007;-53
2021/07/07 11:27:17;;;;;;;7.87;1.90;;;;;;;26.49;44.73;100449.64;1715427;82;21492;-52
2021/07/07 11:29:44;;;;;;;9.13;2.30;;;;;;;26.43;45.00;100446.24;1711050;83;20947;-53
2021/07/07 11:32:35;;;;;;;6.53;2.15;;;;;;;26.41;44.06;100456.73;1711105;83;21021;-52
2021/07/07 11:35:08;;;;;;;2.62;1.80;;;;;;;26.34;43.92;100441.30;1717490;83;21146;-53
2021/07/07 11:37:35;;;;;;;8.23;2.25;;;;;;;26.25;43.91;100437.74;1726163;81;20880;-52
2021/07/07 11:40:15;;;;;;;3.65;2.00;;;;;;;26.19;43.79;100448.91;1742230;81;20944;-53
2021/07/07 11:43:06;;;;;;;3.85;2.20;;;;;;;26.14;44.02;100440.80;1777893;80;21453;-53
2021/07/07 11:46:01;;;;;;;4.12;1.92;;;;;;;26.09;44.40;100436.85;1776857;80;20942;-52
2021/07/07 11:48:39;;;;;;;4.53;2.15;;;;;;;26.10;44.85;100436.28;1711994;83;21901;-52
2021/07/07 11:51:15;;;;;;;3.70;1.72;;;;;;;26.12;45.25;100441.70;1778303;80;20942;-51
2021/07/07 11:53:45;;;;;;;3.62;2.10;;;;;;;26.16;45.45;100440.48;1782926;80;21255;-52
2021/07/07 11:56:16;;;;;;;2.60;1.85;;;;;;;26.20;45.43;100438.14;1781360;80;20992;-53
2021/07/07 11:58:52;;;;;;;2.90;1.72;;;;;;;26.25;44.77;100441.31;1708033;83;20957;-54
2021/07/07 12:01:28;;;;;;;2.98;1.95;;;;;;;26.28;45.46;100445.34;1779922;80;21153;-52
2021/07/07 12:04:09;;;;;;;2.85;1.92;;;;;;;26.32;44.68;100449.86;1774846;80;20930;-56
2021/07/07 12:06:45;;;;;;;5.62;2.12;;;;;;;26.33;43.91;100448.73;1776290;80;20972;-53
2021/07/07 12:09:19;;;;;;;7.33;2.20;;;;;;;26.32;44.69;100453.18;1775195;80;21064;-53
2021/07/07 12:11:53;;;;;;;10.95;2.15;;;;;;;26.32;44.55;100444.94;1710970;83;21558;-54
2021/07/07 12:14:22;;;;;;;6.53;2.20;;;;;;;26.34;44.81;100451.73;1776057;79;22372;-54
2021/07/07 12:16:52;;;;;;;4.47;1.80;;;;;;;26.39;45.24;100449.39;1774288;80;21543;-56
2021/07/07 12:19:18;;;;;;;4.80;1.80;;;;;;;26.44;45.02;100442.92;1741835;81;20990;-52
2021/07/07 12:22:02;;;;;;;4.12;2.00;;;;;;;26.48;44.80;100442.52;1778162;80;20953;-52
2021/07/07 12:24:34;;;;;;;5.45;2.30;;;;;;;26.51;44.44;100446.79;1781529;80;21076;-54